createdAt,value
2022-09-11T00:01:25.980Z,13.60
2022-09-11T00:03:54.915Z,13.60
2022-09-11T00:06:29.319Z,13.60
2022-09-11T00:09:04.490Z,13.60
2022-09-11T00:11:42.445Z,13.60
2022-09-11T00:14:13.767Z,13.60
2022-09-11T00:16:43.082Z,13.60
2022-09-11T00:19:18.840Z,13.60
2022-09-11T00:21:46.606Z,13.60
2022-09-11T00:24:13.679Z,13.60
2022-09-11T00:26:42.577Z,13.60
2022-09-11T00:29:10.436Z,13.60
2022-09-11T00:31:37.678Z,13.50
2022-09-11T00:34:04.625Z,13.50
2022-09-11T00:36:32.445Z,13.50
2022-09-11T00:38:59.964Z,13.50
2022-09-11T00:41:29.641Z,13.50
2022-09-11T00:44:16.861Z,13.50
2022-09-11T00:46:47.393Z,13.50
2022-09-11T00:49:35.075Z,13.50
2022-09-11T00:52:11.484Z,13.50
2022-09-11T00:54:44.089Z,13.40
2022-09-11T00:57:11.281Z,13.40
2022-09-11T00:59:41.984Z,13.40
2022-09-11T01:02:13.818Z,13.40
2022-09-11T01:04:40.851Z,13.40
2022-09-11T01:07:07.820Z,13.40
2022-09-11T01:09:34.750Z,13.50
2022-09-11T01:12:23.857Z,13.40
2022-09-11T01:14:56.656Z,13.50
2022-09-11T01:17:50.112Z,13.50
2022-09-11T01:20:30.029Z,13.50
2022-09-11T01:23:44.189Z,13.50
2022-09-11T01:26:46.349Z,13.50
2022-09-11T01:29:35.194Z,13.50
2022-09-11T01:32:15.203Z,13.50
2022-09-11T01:35:12.087Z,13.50
2022-09-11T01:37:51.012Z,13.50
2022-09-11T01:40:36.801Z,13.60
2022-09-11T01:43:09.159Z,13.60
2022-09-11T01:45:38.869Z,13.60
2022-09-11T01:48:07.784Z,13.60
2022-09-11T01:50:40.269Z,13.60
2022-09-11T01:53:09.772Z,13.60
2022-09-11T01:55:44.877Z,13.70
2022-09-11T01:58:22.755Z,13.60
2022-09-11T02:00:54.109Z,13.60
2022-09-11T02:03:24.819Z,13.70
2022-09-11T02:06:00.353Z,13.70
2022-09-11T02:08:42.249Z,13.70
2022-09-11T02:11:12.644Z,13.70
2022-09-11T02:14:04.019Z,13.60
2022-09-11T02:16:35.566Z,13.70
2022-09-11T02:19:06.040Z,13.60
2022-09-11T02:21:34.116Z,13.60
2022-09-11T02:24:02.141Z,13.70
2022-09-11T02:26:32.148Z,13.60
2022-09-11T02:28:59.559Z,13.70
2022-09-11T02:31:27.875Z,13.70
2022-09-11T02:33:54.917Z,13.70
2022-09-11T02:36:58.097Z,13.70
2022-09-11T02:39:40.081Z,13.70
2022-09-11T02:42:16.095Z,13.60
2022-09-11T02:45:16.804Z,13.70
2022-09-11T02:47:53.745Z,13.70
2022-09-11T02:50:53.481Z,13.60
2022-09-11T02:53:29.239Z,13.70
2022-09-11T02:55:57.068Z,13.60
2022-09-11T02:58:34.507Z,13.60
2022-09-11T03:01:03.002Z,13.70
2022-09-11T03:03:41.767Z,13.70
2022-09-11T03:06:16.258Z,13.70
2022-09-11T03:08:43.233Z,13.60
2022-09-11T03:11:10.304Z,13.70
2022-09-11T03:13:38.179Z,13.80
2022-09-11T03:16:05.793Z,13.70
2022-09-11T03:18:33.193Z,13.80
2022-09-11T03:21:01.278Z,13.70
2022-09-11T03:23:28.467Z,13.70
2022-09-11T03:25:55.668Z,13.80
2022-09-11T03:28:23.122Z,13.80
2022-09-11T03:30:50.773Z,13.70
2022-09-11T03:33:17.711Z,13.80
2022-09-11T03:35:45.238Z,13.70
2022-09-11T03:38:12.625Z,13.70
2022-09-11T03:40:41.920Z,13.70
2022-09-11T03:43:09.521Z,13.70
2022-09-11T03:45:36.468Z,13.70
2022-09-11T03:48:03.426Z,13.60
2022-09-11T03:50:30.338Z,13.60
2022-09-11T03:52:58.436Z,13.50
2022-09-11T03:55:25.304Z,13.50
2022-09-11T03:57:52.151Z,13.50
2022-09-11T04:00:19.169Z,13.50
2022-09-11T04:02:46.009Z,13.40
2022-09-11T04:05:12.898Z,13.30
2022-09-11T04:07:40.036Z,13.30
2022-09-11T04:10:07.096Z,13.30
2022-09-11T04:12:34.006Z,13.30
2022-09-11T04:15:02.244Z,13.30
2022-09-11T04:17:32.315Z,13.20
2022-09-11T04:19:59.206Z,13.20
2022-09-11T04:22:26.652Z,13.20
2022-09-11T04:24:53.465Z,11.50
2022-09-11T04:27:21.388Z,13.20
2022-09-11T04:29:48.297Z,13.20
2022-09-11T04:32:15.714Z,13.20
2022-09-11T04:34:42.760Z,13.10
2022-09-11T04:37:10.260Z,13.10
2022-09-11T04:39:37.287Z,13.10
2022-09-11T04:42:04.556Z,13.20
2022-09-11T04:44:32.625Z,13.10
2022-09-11T04:46:59.558Z,13.10
2022-09-11T04:49:26.623Z,13.10
2022-09-11T04:51:53.895Z,13.10
2022-09-11T04:54:23.929Z,13.10
2022-09-11T04:56:51.005Z,13.10
2022-09-11T04:59:22.102Z,13.00
2022-09-11T05:01:49.401Z,13.00
2022-09-11T05:04:21.688Z,13.00
2022-09-11T05:06:51.113Z,13.00
2022-09-11T05:09:19.057Z,13.10
2022-09-11T05:11:46.003Z,13.10
2022-09-11T05:14:12.951Z,13.10
2022-09-11T05:16:39.978Z,13.00
2022-09-11T05:19:07.134Z,13.00
2022-09-11T05:21:34.580Z,13.00
2022-09-11T05:24:02.527Z,12.90
2022-09-11T05:26:32.129Z,12.90
2022-09-11T05:29:05.219Z,12.90
2022-09-11T05:31:32.386Z,13.00
2022-09-11T05:34:00.583Z,13.00
2022-09-11T05:36:28.581Z,13.00
2022-09-11T05:38:55.482Z,13.00
2022-09-11T05:41:22.594Z,13.00
2022-09-11T05:43:49.436Z,13.00
2022-09-11T05:46:17.774Z,13.00
2022-09-11T05:48:45.382Z,13.10
2022-09-11T05:51:21.443Z,13.10
2022-09-11T05:53:56.009Z,13.10
2022-09-11T05:56:25.049Z,13.10
2022-09-11T05:58:52.320Z,13.20
2022-09-11T06:01:24.314Z,13.30
2022-09-11T06:03:51.693Z,13.40
2022-09-11T06:06:20.177Z,13.50
2022-09-11T06:08:47.893Z,13.50
2022-09-11T06:11:17.157Z,13.60
2022-09-11T06:13:46.531Z,13.60
2022-09-11T06:16:18.677Z,13.60
2022-09-11T06:18:50.219Z,13.70
2022-09-11T06:21:20.252Z,13.60
2022-09-11T06:23:52.070Z,13.70
2022-09-11T06:26:23.990Z,13.70
2022-09-11T06:28:51.740Z,13.70
2022-09-11T06:31:21.483Z,13.70
2022-09-11T06:33:49.246Z,13.80
2022-09-11T06:36:18.345Z,13.80
2022-09-11T06:38:46.059Z,13.90
2022-09-11T06:41:16.971Z,14.00
2022-09-11T06:43:45.013Z,14.10
2022-09-11T06:46:19.793Z,14.20
2022-09-11T06:48:48.700Z,14.30
2022-09-11T06:51:17.739Z,14.40
2022-09-11T06:53:45.569Z,14.50
2022-09-11T06:56:15.747Z,14.50
2022-09-11T06:58:43.956Z,14.60
2022-09-11T07:01:15.841Z,14.60
2022-09-11T07:03:45.217Z,14.60
2022-09-11T07:06:18.139Z,14.60
2022-09-11T07:08:51.115Z,14.60
2022-09-11T07:11:18.564Z,14.50
2022-09-11T07:13:45.771Z,14.40
2022-09-11T07:16:13.533Z,14.40
2022-09-11T07:18:42.736Z,14.50
2022-09-11T07:21:12.487Z,14.60
2022-09-11T07:23:40.741Z,14.80
2022-09-11T07:26:11.208Z,15.10
2022-09-11T07:28:38.816Z,15.30
2022-09-11T07:31:10.587Z,15.30
2022-09-11T07:33:39.670Z,15.30
2022-09-11T07:36:12.030Z,15.30
2022-09-11T07:38:40.781Z,15.20
2022-09-11T07:41:11.717Z,15.10
2022-09-11T07:43:39.642Z,15.10
2022-09-11T07:46:06.986Z,15.10
2022-09-11T07:48:34.157Z,15.00
2022-09-11T07:51:04.398Z,14.90
2022-09-11T07:53:35.735Z,14.90
2022-09-11T07:56:04.710Z,15.00
2022-09-11T07:58:34.043Z,15.00
2022-09-11T08:01:02.585Z,15.00
2022-09-11T08:03:31.151Z,15.00
2022-09-11T08:05:59.581Z,15.10
2022-09-11T08:08:29.074Z,15.10
2022-09-11T08:11:05.433Z,15.00
2022-09-11T08:13:33.215Z,15.00
2022-09-11T08:16:00.626Z,15.00
2022-09-11T08:18:27.951Z,15.10
2022-09-11T08:21:03.277Z,15.10
2022-09-11T08:23:32.161Z,15.20
2022-09-11T08:26:06.854Z,15.10
2022-09-11T08:28:37.234Z,15.20
2022-09-11T08:31:06.218Z,15.10
2022-09-11T08:33:33.676Z,15.20
2022-09-11T08:36:02.709Z,15.10
2022-09-11T08:38:29.993Z,15.10
2022-09-11T08:40:59.153Z,15.10
2022-09-11T08:43:35.213Z,15.20
2022-09-11T08:46:06.552Z,15.20
2022-09-11T08:48:45.852Z,15.30
2022-09-11T08:51:16.299Z,15.40
2022-09-11T08:53:43.645Z,15.50
2022-09-11T08:56:18.211Z,15.60
2022-09-11T08:58:51.350Z,15.50
2022-09-11T09:01:26.204Z,15.50
2022-09-11T09:04:14.932Z,15.40
2022-09-11T09:06:53.813Z,15.40
2022-09-11T09:09:36.037Z,15.40
2022-09-11T09:12:20.496Z,15.60
2022-09-11T09:15:07.552Z,15.70
2022-09-11T09:17:34.604Z,15.80
2022-09-11T09:20:11.666Z,15.90
2022-09-11T09:22:59.441Z,16.00
2022-09-11T09:25:27.384Z,16.20
2022-09-11T09:28:21.962Z,16.30
2022-09-11T09:30:54.392Z,16.40
2022-09-11T09:33:34.657Z,16.30
2022-09-11T09:36:30.531Z,16.20
2022-09-11T09:38:58.671Z,16.00
2022-09-11T09:41:59.075Z,15.90
2022-09-11T09:44:53.818Z,15.90
2022-09-11T09:47:20.986Z,15.80
2022-09-11T09:49:48.130Z,15.80
2022-09-11T09:52:27.070Z,15.90
2022-09-11T09:55:02.642Z,16.00
2022-09-11T09:57:35.063Z,16.20
2022-09-11T10:00:11.963Z,16.30
2022-09-11T10:02:43.385Z,16.20
2022-09-11T10:05:16.906Z,16.20
2022-09-11T10:07:49.607Z,16.30
2022-09-11T10:10:25.523Z,16.50
2022-09-11T10:13:18.592Z,16.40
2022-09-11T10:15:49.791Z,16.40
2022-09-11T10:18:33.637Z,16.40
2022-09-11T10:21:12.790Z,16.50
2022-09-11T10:23:54.982Z,16.40
2022-09-11T10:26:41.173Z,16.40
2022-09-11T10:29:26.628Z,16.40
2022-09-11T10:31:55.975Z,16.30
2022-09-11T10:34:25.681Z,16.20
2022-09-11T10:36:52.523Z,16.30
2022-09-11T10:39:21.008Z,16.40
2022-09-11T10:41:52.625Z,16.50
2022-09-11T10:44:22.142Z,16.60
2022-09-11T10:47:22.171Z,16.80
2022-09-11T10:49:49.826Z,17.00
2022-09-11T10:52:19.888Z,17.00
2022-09-11T10:55:15.286Z,16.80
2022-09-11T10:57:57.913Z,16.80
2022-09-11T11:00:27.930Z,16.80
2022-09-11T11:03:17.362Z,16.90
2022-09-11T11:05:50.116Z,17.10
2022-09-11T11:08:51.249Z,17.10
2022-09-11T11:11:51.219Z,17.00
2022-09-11T11:14:50.834Z,16.90
2022-09-11T11:17:23.828Z,17.00
2022-09-11T11:20:09.260Z,17.10
2022-09-11T11:22:54.306Z,17.20
2022-09-11T11:25:41.120Z,17.40
2022-09-11T11:28:44.595Z,17.50
2022-09-11T11:31:44.221Z,17.40
2022-09-11T11:34:36.264Z,17.30
2022-09-11T11:37:13.449Z,17.50
2022-09-11T11:40:04.817Z,17.70
2022-09-11T11:42:41.552Z,17.70
2022-09-11T11:45:40.488Z,17.60
2022-09-11T11:48:16.984Z,17.60
2022-09-11T11:50:49.040Z,17.50
2022-09-11T11:53:47.922Z,17.50
2022-09-11T11:56:36.142Z,17.60
2022-09-11T11:59:07.158Z,17.70
2022-09-11T12:01:43.210Z,19.50
2022-09-11T12:04:16.400Z,18.10
2022-09-11T12:06:43.484Z,18.20
2022-09-11T12:09:10.982Z,18.00
2022-09-11T12:11:39.289Z,18.00
2022-09-11T12:14:07.423Z,18.00
2022-09-11T12:16:35.793Z,18.20
2022-09-11T12:19:05.010Z,18.30
2022-09-11T12:21:31.922Z,18.60
2022-09-11T12:24:02.662Z,18.60
2022-09-11T12:26:31.635Z,18.50
2022-09-11T12:29:14.551Z,18.40
2022-09-11T12:31:50.681Z,18.20
2022-09-11T12:34:37.667Z,18.30
2022-09-11T12:37:11.673Z,18.40
2022-09-11T12:39:49.124Z,18.40
2022-09-11T12:42:28.123Z,18.40
2022-09-11T12:44:59.734Z,18.40
2022-09-11T12:47:28.216Z,18.50
2022-09-11T12:49:57.467Z,18.60
2022-09-11T12:52:45.474Z,18.90
2022-09-11T12:55:51.875Z,19.10
2022-09-11T12:58:21.460Z,19.20
2022-09-11T13:00:51.376Z,19.20
2022-09-11T13:03:24.642Z,19.10
2022-09-11T13:06:08.262Z,19.10
2022-09-11T13:08:46.706Z,19.20
2022-09-11T13:11:46.347Z,19.40
2022-09-11T13:14:28.535Z,19.50
2022-09-11T13:17:03.473Z,19.60
2022-09-11T13:19:35.947Z,19.50
2022-09-11T13:22:19.815Z,19.40
2022-09-11T13:24:47.176Z,19.40
2022-09-11T13:27:26.725Z,19.40
2022-09-11T13:29:57.964Z,19.40
2022-09-11T13:32:26.132Z,19.50
2022-09-11T13:35:01.837Z,19.60
2022-09-11T13:38:12.442Z,19.70
2022-09-11T13:40:55.450Z,19.80
2022-09-11T13:43:28.800Z,20.00
2022-09-11T13:46:11.107Z,20.00
2022-09-11T13:48:39.083Z,20.10
2022-09-11T13:51:06.688Z,19.90
2022-09-11T13:53:35.940Z,19.70
2022-09-11T13:56:03.017Z,19.70
2022-09-11T13:58:35.641Z,19.70
2022-09-11T14:01:14.329Z,19.90
2022-09-11T14:03:47.027Z,20.20
2022-09-11T14:06:19.851Z,20.40
2022-09-11T14:08:53.735Z,20.60
2022-09-11T14:11:31.475Z,20.80
2022-09-11T14:14:10.174Z,20.90
2022-09-11T14:16:45.139Z,20.60
2022-09-11T14:19:17.250Z,20.40
2022-09-11T14:21:47.183Z,20.30
2022-09-11T14:24:26.048Z,20.30
2022-09-11T14:26:53.202Z,20.30
2022-09-11T14:29:35.106Z,20.20
2022-09-11T14:32:37.292Z,20.30
2022-09-11T14:35:08.871Z,20.30
2022-09-11T14:37:41.264Z,20.20
2022-09-11T14:40:15.668Z,20.40
2022-09-11T14:42:43.818Z,20.60
2022-09-11T14:45:18.867Z,20.70
2022-09-11T14:47:46.769Z,20.60
2022-09-11T14:50:14.269Z,20.40
2022-09-11T14:52:42.753Z,20.20
2022-09-11T14:55:20.098Z,20.10
2022-09-11T14:57:48.099Z,20.20
2022-09-11T15:00:19.110Z,20.50
2022-09-11T15:02:46.677Z,20.60
2022-09-11T15:05:17.188Z,20.80
2022-09-11T15:07:46.697Z,20.90
2022-09-11T15:10:15.151Z,20.90
2022-09-11T15:12:42.715Z,20.90
2022-09-11T15:15:10.162Z,21.00
2022-09-11T15:17:37.252Z,20.80
2022-09-11T15:20:07.890Z,20.70
2022-09-11T15:22:35.524Z,20.60
2022-09-11T15:25:03.644Z,20.70
2022-09-11T15:27:31.278Z,20.60
2022-09-11T15:29:58.201Z,20.70
2022-09-11T15:32:25.228Z,20.70
2022-09-11T15:34:54.448Z,20.60
2022-09-11T15:37:21.519Z,20.50
2022-09-11T15:39:50.925Z,20.40
2022-09-11T15:42:18.466Z,20.40
2022-09-11T15:44:46.232Z,20.30
2022-09-11T15:47:13.817Z,20.30
2022-09-11T15:49:44.463Z,20.50
2022-09-11T15:52:11.516Z,20.60
2022-09-11T15:54:38.586Z,20.80
2022-09-11T15:57:05.873Z,20.80
2022-09-11T15:59:33.053Z,20.90
2022-09-11T16:02:00.413Z,20.90
2022-09-11T16:04:29.173Z,20.80
2022-09-11T16:06:56.295Z,20.80
2022-09-11T16:09:28.703Z,20.80
2022-09-11T16:11:56.062Z,20.80
2022-09-11T16:14:28.568Z,20.80
2022-09-11T16:16:56.959Z,20.70
2022-09-11T16:19:28.665Z,20.80
2022-09-11T16:21:57.314Z,20.80
2022-09-11T16:24:26.912Z,20.70
2022-09-11T16:26:55.884Z,20.70
2022-09-11T16:29:38.479Z,20.70
2022-09-11T16:32:28.298Z,20.70
2022-09-11T16:34:57.255Z,20.70
2022-09-11T16:37:24.664Z,20.70
2022-09-11T16:39:51.570Z,20.80
2022-09-11T16:42:21.257Z,20.90
2022-09-11T16:44:49.664Z,20.80
2022-09-11T16:47:17.324Z,20.70
2022-09-11T16:50:05.761Z,20.50
2022-09-11T16:52:32.731Z,20.40
2022-09-11T16:54:59.944Z,20.30
2022-09-11T16:57:29.767Z,20.20
2022-09-11T16:59:56.886Z,20.20
2022-09-11T17:02:25.071Z,20.00
2022-09-11T17:04:52.480Z,19.90
2022-09-11T17:07:19.723Z,19.70
2022-09-11T17:09:48.687Z,19.70
2022-09-11T17:12:17.760Z,19.60
2022-09-11T17:14:44.784Z,19.50
2022-09-11T17:17:11.683Z,19.40
2022-09-11T17:19:39.004Z,19.40
2022-09-11T17:22:06.684Z,19.40
2022-09-11T17:24:33.823Z,19.30
2022-09-11T17:27:01.789Z,19.30
2022-09-11T17:29:28.646Z,19.20
2022-09-11T17:32:16.758Z,19.20
2022-09-11T17:34:42.844Z,19.10
2022-09-11T17:37:10.140Z,19.00
2022-09-11T17:39:37.092Z,18.90
2022-09-11T17:42:11.086Z,18.90
2022-09-11T17:44:41.304Z,18.80
2022-09-11T17:47:08.743Z,18.70
2022-09-11T17:49:35.681Z,18.70
2022-09-11T17:52:04.285Z,18.50
2022-09-11T17:54:31.414Z,18.40
2022-09-11T17:56:59.173Z,18.40
2022-09-11T17:59:26.033Z,18.20
2022-09-11T18:01:53.385Z,18.10
2022-09-11T18:04:22.428Z,17.90
2022-09-11T18:06:49.461Z,17.70
2022-09-11T18:09:17.951Z,17.60
2022-09-11T18:11:46.848Z,17.40
2022-09-11T18:14:14.928Z,17.30
2022-09-11T18:16:44.283Z,17.20
2022-09-11T18:19:12.148Z,17.10
2022-09-11T18:21:39.226Z,17.00
2022-09-11T18:24:07.111Z,16.90
2022-09-11T18:26:40.893Z,16.90
2022-09-11T18:29:11.751Z,16.80
2022-09-11T18:31:42.091Z,16.70
2022-09-11T18:34:15.086Z,16.70
2022-09-11T18:36:42.994Z,16.60
2022-09-11T18:39:11.746Z,16.60
2022-09-11T18:41:38.836Z,16.60
2022-09-11T18:44:10.963Z,16.50
2022-09-11T18:46:37.973Z,16.50
2022-09-11T18:49:05.754Z,16.50
2022-09-11T18:51:32.941Z,16.50
2022-09-11T18:54:00.275Z,16.50
2022-09-11T18:56:29.468Z,16.50
2022-09-11T18:58:56.461Z,16.60
2022-09-11T19:01:25.736Z,16.60
2022-09-11T19:03:53.561Z,16.60
2022-09-11T19:06:25.255Z,16.50
2022-09-11T19:08:53.495Z,16.60
2022-09-11T19:11:23.029Z,16.50
2022-09-11T19:13:51.179Z,16.50
2022-09-11T19:16:19.344Z,16.50
2022-09-11T19:18:46.255Z,16.50
2022-09-11T19:21:20.827Z,16.50
2022-09-11T19:23:50.482Z,16.50
2022-09-11T19:26:21.189Z,16.50
2022-09-11T19:28:49.346Z,16.50
2022-09-11T19:31:21.226Z,16.40
2022-09-11T19:33:48.581Z,16.40
2022-09-11T19:36:18.764Z,16.40
2022-09-11T19:38:46.989Z,16.30
2022-09-11T19:41:16.629Z,16.20
2022-09-11T19:43:44.509Z,16.20
2022-09-11T19:46:14.596Z,16.00
2022-09-11T19:48:42.896Z,16.00
2022-09-11T19:51:14.268Z,15.90
2022-09-11T19:53:41.782Z,15.70
2022-09-11T19:56:10.259Z,15.60
2022-09-11T19:58:38.808Z,15.50
2022-09-11T20:01:11.488Z,15.40
2022-09-11T20:03:44.195Z,15.40
2022-09-11T20:06:13.046Z,15.40
2022-09-11T20:08:45.933Z,15.30
2022-09-11T20:11:16.899Z,15.20
2022-09-11T20:13:44.066Z,15.20
2022-09-11T20:16:15.071Z,15.20
2022-09-11T20:18:43.441Z,15.10
2022-09-11T20:21:13.405Z,15.10
2022-09-11T20:23:40.447Z,15.00
2022-09-11T20:26:08.747Z,14.90
2022-09-11T20:28:35.884Z,14.90
2022-09-11T20:31:10.901Z,14.80
2022-09-11T20:33:37.993Z,14.80
2022-09-11T20:36:05.042Z,14.70
2022-09-11T20:38:32.523Z,14.60
2022-09-11T20:41:00.598Z,14.60
2022-09-11T20:43:27.578Z,14.50
2022-09-11T20:45:54.700Z,14.50
2022-09-11T20:48:21.597Z,14.40
2022-09-11T20:50:50.408Z,14.40
2022-09-11T20:53:17.664Z,14.40
2022-09-11T20:55:44.579Z,14.40
2022-09-11T20:58:11.415Z,14.40
2022-09-11T21:00:39.958Z,14.30
2022-09-11T21:03:06.878Z,14.30
2022-09-11T21:05:35.607Z,14.20
2022-09-11T21:08:03.035Z,14.10
2022-09-11T21:10:30.024Z,14.00
2022-09-11T21:12:56.927Z,14.00
2022-09-11T21:15:23.922Z,14.00
2022-09-11T21:17:51.097Z,14.00
2022-09-11T21:20:18.323Z,13.90
2022-09-11T21:22:45.232Z,13.80
2022-09-11T21:25:12.293Z,13.80
2022-09-11T21:27:39.216Z,13.70
2022-09-11T21:30:06.715Z,13.70
2022-09-11T21:32:33.815Z,13.80
2022-09-11T21:35:00.626Z,13.60
2022-09-11T21:37:27.631Z,13.60
2022-09-11T21:39:54.568Z,13.50
2022-09-11T21:42:21.618Z,13.50
2022-09-11T21:44:48.602Z,13.40
2022-09-11T21:47:16.228Z,13.30
2022-09-11T21:49:45.224Z,13.30
2022-09-11T21:52:12.095Z,13.20
2022-09-11T21:54:39.160Z,13.10
2022-09-11T21:57:06.227Z,12.70
2022-09-11T21:59:33.138Z,13.10
2022-09-11T22:02:00.972Z,13.10
2022-09-11T22:04:28.223Z,13.00
2022-09-11T22:06:55.679Z,13.00
2022-09-11T22:09:22.718Z,13.00
2022-09-11T22:11:49.994Z,13.00
2022-09-11T22:14:20.209Z,13.00
2022-09-11T22:16:47.347Z,12.90
2022-09-11T22:19:14.480Z,12.90
2022-09-11T22:21:41.483Z,12.90
2022-09-11T22:24:08.362Z,12.90
2022-09-11T22:26:35.498Z,12.80
2022-09-11T22:29:04.202Z,12.80
2022-09-11T22:31:31.335Z,12.80
2022-09-11T22:33:58.496Z,12.70
2022-09-11T22:36:30.203Z,12.70
2022-09-11T22:38:58.999Z,12.80
2022-09-11T22:41:27.319Z,12.70
2022-09-11T22:43:54.253Z,12.80
2022-09-11T22:46:21.946Z,12.80
2022-09-11T22:48:48.934Z,12.80
2022-09-11T22:51:16.749Z,12.80
2022-09-11T22:53:43.831Z,12.80
2022-09-11T22:56:10.961Z,12.80
2022-09-11T22:58:38.590Z,12.70
2022-09-11T23:01:08.068Z,12.70
2022-09-11T23:03:35.314Z,12.70
2022-09-11T23:06:21.769Z,12.60
2022-09-11T23:08:49.395Z,12.60
2022-09-11T23:11:19.792Z,12.50
2022-09-11T23:13:48.505Z,12.50
2022-09-11T23:16:27.013Z,12.50
2022-09-11T23:18:58.597Z,12.50
2022-09-11T23:21:27.233Z,12.40
2022-09-11T23:23:56.129Z,12.40
2022-09-11T23:26:24.891Z,12.40
2022-09-11T23:28:52.542Z,12.30
2022-09-11T23:31:31.486Z,12.30
2022-09-11T23:34:03.673Z,12.20
2022-09-11T23:36:31.113Z,12.20
2022-09-11T23:38:58.374Z,12.10
2022-09-11T23:41:25.609Z,12.10
2022-09-11T23:43:52.957Z,12.10
2022-09-11T23:46:19.977Z,12.10
2022-09-11T23:48:47.445Z,12.70
2022-09-11T23:51:15.634Z,12.00
2022-09-11T23:53:45.078Z,11.90
2022-09-11T23:56:14.536Z,11.90
2022-09-11T23:58:42.142Z,11.80
